sensor_id;sensor_type;location;lat;lon;timestamp;temperature;humidity
57242;DHT22;43095;53.302;5.786;2022-09-12T00:01:27;14.50;99.90
57242;DHT22;43095;53.302;5.786;2022-09-12T00:04:13;14.40;99.90
57242;DHT22;43095;53.302;5.786;2022-09-12T00:06:59;14.30;99.90
57242;DHT22;43095;53.302;5.786;2022-09-12T00:09:44;14.30;99.90
57242;DHT22;43095;53.302;5.786;2022-09-12T00:12:31;14.40;99.90
57242;DHT22;43095;53.302;5.786;2022-09-12T00:15:17;14.30;99.90
57242;DHT22;43095;53.302;5.786;2022-09-12T00:18:02;14.30;99.90
57242;DHT22;43095;53.302;5.786;2022-09-12T00:20:48;14.30;99.90
57242;DHT22;43095;53.302;5.786;2022-09-12T00:23:33;14.30;99.90
57242;DHT22;43095;53.302;5.786;2022-09-12T00:26:20;14.30;99.90
57242;DHT22;43095;53.302;5.786;2022-09-12T00:29:06;14.30;99.90
57242;DHT22;43095;53.302;5.786;2022-09-12T00:31:51;14.30;99.90
57242;DHT22;43095;53.302;5.786;2022-09-12T00:34:37;14.20;99.90
57242;DHT22;43095;53.302;5.786;2022-09-12T00:37:23;14.20;99.90
57242;DHT22;43095;53.302;5.786;2022-09-12T00:40:09;14.20;99.90
57242;DHT22;43095;53.302;5.786;2022-09-12T00:42:54;14.20;99.90
57242;DHT22;43095;53.302;5.786;2022-09-12T00:45:40;14.10;99.90
57242;DHT22;43095;53.302;5.786;2022-09-12T00:48:34;14.10;99.90
57242;DHT22;43095;53.302;5.786;2022-09-12T00:51:23;14.10;99.90
57242;DHT22;43095;53.302;5.786;2022-09-12T00:54:15;14.10;99.90
57242;DHT22;43095;53.302;5.786;2022-09-12T00:57:05;14.00;99.90
57242;DHT22;43095;53.302;5.786;2022-09-12T01:02:59;14.00;99.90
57242;DHT22;43095;53.302;5.786;2022-09-12T01:06:01;14.00;99.90
57242;DHT22;43095;53.302;5.786;2022-09-12T01:08:50;14.00;99.90
57242;DHT22;43095;53.302;5.786;2022-09-12T01:11:38;14.00;99.90
57242;DHT22;43095;53.302;5.786;2022-09-12T01:14:24;13.90;99.90
57242;DHT22;43095;53.302;5.786;2022-09-12T01:17:12;14.00;99.90
57242;DHT22;43095;53.302;5.786;2022-09-12T01:20:22;13.90;99.90
57242;DHT22;43095;53.302;5.786;2022-09-12T01:29:43;13.90;99.90
57242;DHT22;43095;53.302;5.786;2022-09-12T01:35:24;13.90;99.90
57242;DHT22;43095;53.302;5.786;2022-09-12T01:41:04;13.90;99.90
57242;DHT22;43095;53.302;5.786;2022-09-12T01:46:58;13.90;99.90
57242;DHT22;43095;53.302;5.786;2022-09-12T01:50:00;13.90;99.90
57242;DHT22;43095;53.302;5.786;2022-09-12T01:52:53;13.90;99.90
57242;DHT22;43095;53.302;5.786;2022-09-12T01:55:44;13.90;99.90
57242;DHT22;43095;53.302;5.786;2022-09-12T01:58:42;13.80;99.90
57242;DHT22;43095;53.302;5.786;2022-09-12T02:01:34;13.80;99.90
57242;DHT22;43095;53.302;5.786;2022-09-12T02:07:37;13.80;99.90
57242;DHT22;43095;53.302;5.786;2022-09-12T02:10:30;13.80;99.90
57242;DHT22;43095;53.302;5.786;2022-09-12T02:13:41;13.80;99.90
57242;DHT22;43095;53.302;5.786;2022-09-12T02:16:37;13.80;99.90
57242;DHT22;43095;53.302;5.786;2022-09-12T02:19:29;13.70;99.90
57242;DHT22;43095;53.302;5.786;2022-09-12T02:22:17;13.70;99.90
57242;DHT22;43095;53.302;5.786;2022-09-12T02:25:05;13.80;99.90
57242;DHT22;43095;53.302;5.786;2022-09-12T02:27:58;13.70;99.90
57242;DHT22;43095;53.302;5.786;2022-09-12T02:34:49;13.70;99.90
57242;DHT22;43095;53.302;5.786;2022-09-12T02:40:44;13.70;99.90
57242;DHT22;43095;53.302;5.786;2022-09-12T02:43:30;13.70;99.90
57242;DHT22;43095;53.302;5.786;2022-09-12T02:46:32;13.70;99.90
57242;DHT22;43095;53.302;5.786;2022-09-12T02:49:21;13.70;99.90
57242;DHT22;43095;53.302;5.786;2022-09-12T02:52:07;13.70;99.90
57242;DHT22;43095;53.302;5.786;2022-09-12T02:54:53;13.70;99.90
57242;DHT22;43095;53.302;5.786;2022-09-12T02:57:39;13.70;99.90
57242;DHT22;43095;53.302;5.786;2022-09-12T03:00:25;13.70;99.90
57242;DHT22;43095;53.302;5.786;2022-09-12T03:06:01;13.70;99.90
57242;DHT22;43095;53.302;5.786;2022-09-12T03:09:44;13.70;99.90
57242;DHT22;43095;53.302;5.786;2022-09-12T03:12:35;13.70;99.90
57242;DHT22;43095;53.302;5.786;2022-09-12T03:15:53;13.70;99.90
57242;DHT22;43095;53.302;5.786;2022-09-12T03:28:12;13.60;99.90
57242;DHT22;43095;53.302;5.786;2022-09-12T03:30:59;13.60;99.90
57242;DHT22;43095;53.302;5.786;2022-09-12T03:33:44;13.60;99.90
57242;DHT22;43095;53.302;5.786;2022-09-12T03:36:30;13.50;99.90
57242;DHT22;43095;53.302;5.786;2022-09-12T03:39:16;13.50;99.90
57242;DHT22;43095;53.302;5.786;2022-09-12T03:42:02;13.60;99.90
57242;DHT22;43095;53.302;5.786;2022-09-12T03:44:48;13.60;99.90
57242;DHT22;43095;53.302;5.786;2022-09-12T03:47:34;13.60;99.90
57242;DHT22;43095;53.302;5.786;2022-09-12T03:50:20;13.60;99.90
57242;DHT22;43095;53.302;5.786;2022-09-12T03:53:06;13.70;99.90
57242;DHT22;43095;53.302;5.786;2022-09-12T03:55:51;13.70;99.90
57242;DHT22;43095;53.302;5.786;2022-09-12T03:58:37;13.70;99.90
57242;DHT22;43095;53.302;5.786;2022-09-12T04:01:23;13.70;99.90
57242;DHT22;43095;53.302;5.786;2022-09-12T04:04:09;13.80;99.90
57242;DHT22;43095;53.302;5.786;2022-09-12T04:06:55;13.80;99.90
57242;DHT22;43095;53.302;5.786;2022-09-12T04:09:40;13.80;99.90
57242;DHT22;43095;53.302;5.786;2022-09-12T04:12:26;13.80;99.90
57242;DHT22;43095;53.302;5.786;2022-09-12T04:15:13;13.80;99.90
57242;DHT22;43095;53.302;5.786;2022-09-12T04:17:58;13.90;99.90
57242;DHT22;43095;53.302;5.786;2022-09-12T04:20:50;13.90;99.90
57242;DHT22;43095;53.302;5.786;2022-09-12T04:23:36;13.90;99.90
57242;DHT22;43095;53.302;5.786;2022-09-12T04:26:22;13.90;99.90
57242;DHT22;43095;53.302;5.786;2022-09-12T04:29:10;14.00;99.90
57242;DHT22;43095;53.302;5.786;2022-09-12T04:31:56;14.00;99.90
57242;DHT22;43095;53.302;5.786;2022-09-12T04:34:41;14.00;99.90
57242;DHT22;43095;53.302;5.786;2022-09-12T04:37:27;14.00;99.90
57242;DHT22;43095;53.302;5.786;2022-09-12T04:40:13;14.10;99.90
57242;DHT22;43095;53.302;5.786;2022-09-12T04:42:58;14.10;99.90
57242;DHT22;43095;53.302;5.786;2022-09-12T04:45:44;14.10;99.90
57242;DHT22;43095;53.302;5.786;2022-09-12T04:48:29;14.10;99.90
57242;DHT22;43095;53.302;5.786;2022-09-12T04:51:17;14.10;99.90
57242;DHT22;43095;53.302;5.786;2022-09-12T04:54:07;14.10;99.90
57242;DHT22;43095;53.302;5.786;2022-09-12T04:56:53;14.20;99.90
57242;DHT22;43095;53.302;5.786;2022-09-12T04:59:39;14.20;99.90
57242;DHT22;43095;53.302;5.786;2022-09-12T05:02:24;14.20;99.90
57242;DHT22;43095;53.302;5.786;2022-09-12T05:05:10;14.30;99.90
57242;DHT22;43095;53.302;5.786;2022-09-12T05:07:56;14.30;99.90
57242;DHT22;43095;53.302;5.786;2022-09-12T05:10:42;14.30;99.90
57242;DHT22;43095;53.302;5.786;2022-09-12T05:13:27;14.30;99.90
57242;DHT22;43095;53.302;5.786;2022-09-12T05:16:15;14.30;99.90
57242;DHT22;43095;53.302;5.786;2022-09-12T05:19:01;14.30;99.90
57242;DHT22;43095;53.302;5.786;2022-09-12T05:21:47;14.30;99.90
57242;DHT22;43095;53.302;5.786;2022-09-12T05:24:33;14.40;99.90
57242;DHT22;43095;53.302;5.786;2022-09-12T05:27:19;14.30;99.90
57242;DHT22;43095;53.302;5.786;2022-09-12T05:30:05;14.40;99.90
57242;DHT22;43095;53.302;5.786;2022-09-12T05:32:52;14.40;99.90
57242;DHT22;43095;53.302;5.786;2022-09-12T05:35:37;14.40;99.90
57242;DHT22;43095;53.302;5.786;2022-09-12T05:38:23;14.40;99.90
57242;DHT22;43095;53.302;5.786;2022-09-12T05:41:12;14.40;99.90
57242;DHT22;43095;53.302;5.786;2022-09-12T05:44:05;14.50;99.90
57242;DHT22;43095;53.302;5.786;2022-09-12T05:46:51;14.50;99.90
57242;DHT22;43095;53.302;5.786;2022-09-12T05:49:37;14.50;99.90
57242;DHT22;43095;53.302;5.786;2022-09-12T05:52:23;14.50;99.90
57242;DHT22;43095;53.302;5.786;2022-09-12T05:55:08;14.50;99.90
57242;DHT22;43095;53.302;5.786;2022-09-12T05:57:56;14.60;99.90
57242;DHT22;43095;53.302;5.786;2022-09-12T06:00:41;14.60;99.90
57242;DHT22;43095;53.302;5.786;2022-09-12T06:03:27;14.60;99.90
57242;DHT22;43095;53.302;5.786;2022-09-12T06:06:13;14.60;99.90
57242;DHT22;43095;53.302;5.786;2022-09-12T06:09:01;14.70;99.90
57242;DHT22;43095;53.302;5.786;2022-09-12T06:11:47;14.70;99.90
57242;DHT22;43095;53.302;5.786;2022-09-12T06:14:32;14.70;99.90
57242;DHT22;43095;53.302;5.786;2022-09-12T06:17:18;14.80;99.90
57242;DHT22;43095;53.302;5.786;2022-09-12T06:20:04;14.80;99.90
57242;DHT22;43095;53.302;5.786;2022-09-12T06:22:52;14.80;99.90
57242;DHT22;43095;53.302;5.786;2022-09-12T06:25:45;14.90;99.90
57242;DHT22;43095;53.302;5.786;2022-09-12T06:28:34;14.90;99.90
57242;DHT22;43095;53.302;5.786;2022-09-12T06:31:24;15.00;99.90
57242;DHT22;43095;53.302;5.786;2022-09-12T06:34:12;15.00;99.90
57242;DHT22;43095;53.302;5.786;2022-09-12T06:36:58;15.10;99.90
57242;DHT22;43095;53.302;5.786;2022-09-12T06:39:44;15.10;99.90
57242;DHT22;43095;53.302;5.786;2022-09-12T06:42:31;15.20;99.90
57242;DHT22;43095;53.302;5.786;2022-09-12T06:45:17;15.20;99.90
57242;DHT22;43095;53.302;5.786;2022-09-12T06:48:04;15.20;99.90
57242;DHT22;43095;53.302;5.786;2022-09-12T06:53:47;15.30;99.90
57242;DHT22;43095;53.302;5.786;2022-09-12T06:56:33;15.30;99.90
57242;DHT22;43095;53.302;5.786;2022-09-12T06:59:19;15.30;99.90
57242;DHT22;43095;53.302;5.786;2022-09-12T07:02:05;15.40;99.90
57242;DHT22;43095;53.302;5.786;2022-09-12T07:04:50;15.40;99.90
57242;DHT22;43095;53.302;5.786;2022-09-12T07:07:36;15.40;99.90
57242;DHT22;43095;53.302;5.786;2022-09-12T07:10:22;15.40;99.90
57242;DHT22;43095;53.302;5.786;2022-09-12T07:13:07;15.50;99.90
57242;DHT22;43095;53.302;5.786;2022-09-12T07:15:53;15.50;99.90
57242;DHT22;43095;53.302;5.786;2022-09-12T07:18:39;15.60;99.90
57242;DHT22;43095;53.302;5.786;2022-09-12T07:21:25;15.70;99.90
57242;DHT22;43095;53.302;5.786;2022-09-12T07:24:10;15.70;99.90
57242;DHT22;43095;53.302;5.786;2022-09-12T07:26:56;15.80;99.90
57242;DHT22;43095;53.302;5.786;2022-09-12T07:29:42;15.90;99.90
57242;DHT22;43095;53.302;5.786;2022-09-12T07:32:28;16.00;99.90
57242;DHT22;43095;53.302;5.786;2022-09-12T07:35:14;16.00;99.90
57242;DHT22;43095;53.302;5.786;2022-09-12T07:37:59;16.10;99.90
57242;DHT22;43095;53.302;5.786;2022-09-12T07:40:45;16.10;99.90
57242;DHT22;43095;53.302;5.786;2022-09-12T07:43:31;16.20;99.90
57242;DHT22;43095;53.302;5.786;2022-09-12T07:46:16;16.30;99.90
57242;DHT22;43095;53.302;5.786;2022-09-12T07:49:03;16.40;99.90
57242;DHT22;43095;53.302;5.786;2022-09-12T07:51:48;16.40;99.90
57242;DHT22;43095;53.302;5.786;2022-09-12T07:54:34;16.50;99.90
57242;DHT22;43095;53.302;5.786;2022-09-12T07:57:20;16.60;99.90
57242;DHT22;43095;53.302;5.786;2022-09-12T08:00:06;16.70;99.90
57242;DHT22;43095;53.302;5.786;2022-09-12T08:02:56;16.80;99.90
57242;DHT22;43095;53.302;5.786;2022-09-12T08:05:42;16.90;99.90
57242;DHT22;43095;53.302;5.786;2022-09-12T08:08:28;16.90;99.90
57242;DHT22;43095;53.302;5.786;2022-09-12T08:11:16;17.00;99.90
57242;DHT22;43095;53.302;5.786;2022-09-12T08:14:02;17.10;99.90
57242;DHT22;43095;53.302;5.786;2022-09-12T08:16:50;17.20;99.90
57242;DHT22;43095;53.302;5.786;2022-09-12T08:19:35;17.30;99.90
57242;DHT22;43095;53.302;5.786;2022-09-12T08:22:22;17.40;99.90
57242;DHT22;43095;53.302;5.786;2022-09-12T08:25:07;17.50;99.90
57242;DHT22;43095;53.302;5.786;2022-09-12T08:27:53;17.70;99.90
57242;DHT22;43095;53.302;5.786;2022-09-12T08:30:40;17.70;99.90
57242;DHT22;43095;53.302;5.786;2022-09-12T08:33:25;17.80;99.90
57242;DHT22;43095;53.302;5.786;2022-09-12T08:36:19;17.90;99.90
57242;DHT22;43095;53.302;5.786;2022-09-12T08:39:06;18.10;99.90
57242;DHT22;43095;53.302;5.786;2022-09-12T08:42:01;18.10;99.90
57242;DHT22;43095;53.302;5.786;2022-09-12T08:45:10;18.20;99.90
57242;DHT22;43095;53.302;5.786;2022-09-12T08:48:02;18.30;99.90
57242;DHT22;43095;53.302;5.786;2022-09-12T08:50:49;18.40;99.90
57242;DHT22;43095;53.302;5.786;2022-09-12T08:53:35;18.50;99.90
57242;DHT22;43095;53.302;5.786;2022-09-12T08:56:21;18.60;99.90
57242;DHT22;43095;53.302;5.786;2022-09-12T08:59:07;18.70;99.90
57242;DHT22;43095;53.302;5.786;2022-09-12T09:01:56;18.90;99.90
57242;DHT22;43095;53.302;5.786;2022-09-12T09:08:22;19.30;99.90
57242;DHT22;43095;53.302;5.786;2022-09-12T09:14:54;19.50;99.90
57242;DHT22;43095;53.302;5.786;2022-09-12T09:17:49;19.50;99.90
57242;DHT22;43095;53.302;5.786;2022-09-12T09:20:40;19.60;99.90
57242;DHT22;43095;53.302;5.786;2022-09-12T09:23:43;19.70;99.90
57242;DHT22;43095;53.302;5.786;2022-09-12T09:27:00;19.80;99.90
57242;DHT22;43095;53.302;5.786;2022-09-12T09:29:51;19.80;99.90
57242;DHT22;43095;53.302;5.786;2022-09-12T09:32:38;19.80;99.90
57242;DHT22;43095;53.302;5.786;2022-09-12T09:35:43;19.90;99.90
57242;DHT22;43095;53.302;5.786;2022-09-12T09:38:49;19.90;99.90
57242;DHT22;43095;53.302;5.786;2022-09-12T09:41:44;20.00;99.90
57242;DHT22;43095;53.302;5.786;2022-09-12T09:44:35;20.20;99.90
57242;DHT22;43095;53.302;5.786;2022-09-12T09:47:21;20.30;99.90
57242;DHT22;43095;53.302;5.786;2022-09-12T09:50:12;20.50;99.90
57242;DHT22;43095;53.302;5.786;2022-09-12T09:52:59;20.60;99.90
57242;DHT22;43095;53.302;5.786;2022-09-12T09:55:48;20.70;99.90
57242;DHT22;43095;53.302;5.786;2022-09-12T09:58:35;20.70;99.90
57242;DHT22;43095;53.302;5.786;2022-09-12T10:01:20;20.70;99.90
57242;DHT22;43095;53.302;5.786;2022-09-12T10:04:20;20.80;99.90
57242;DHT22;43095;53.302;5.786;2022-09-12T10:07:17;21.00;99.90
57242;DHT22;43095;53.302;5.786;2022-09-12T10:10:13;21.10;99.90
57242;DHT22;43095;53.302;5.786;2022-09-12T10:14:17;21.30;99.90
57242;DHT22;43095;53.302;5.786;2022-09-12T10:16:47;21.40;99.90
57242;DHT22;43095;53.302;5.786;2022-09-12T10:19:35;21.60;99.90
57242;DHT22;43095;53.302;5.786;2022-09-12T10:22:25;21.80;99.90
57242;DHT22;43095;53.302;5.786;2022-09-12T10:25:15;22.00;99.90
57242;DHT22;43095;53.302;5.786;2022-09-12T10:28:02;22.10;99.90
57242;DHT22;43095;53.302;5.786;2022-09-12T10:30:55;22.20;99.90
57242;DHT22;43095;53.302;5.786;2022-09-12T10:33:46;22.30;99.90
57242;DHT22;43095;53.302;5.786;2022-09-12T10:36:38;22.50;99.90
57242;DHT22;43095;53.302;5.786;2022-09-12T10:39:25;22.60;99.90
57242;DHT22;43095;53.302;5.786;2022-09-12T10:42:13;22.70;99.90
57242;DHT22;43095;53.302;5.786;2022-09-12T10:44:59;22.90;99.90
57242;DHT22;43095;53.302;5.786;2022-09-12T10:47:45;23.00;99.90
57242;DHT22;43095;53.302;5.786;2022-09-12T10:50:40;23.30;99.90
57242;DHT22;43095;53.302;5.786;2022-09-12T10:53:38;23.50;99.90
57242;DHT22;43095;53.302;5.786;2022-09-12T10:56:29;23.60;99.90
57242;DHT22;43095;53.302;5.786;2022-09-12T11:02:23;23.90;98.00
57242;DHT22;43095;53.302;5.786;2022-09-12T11:11:32;24.10;92.70
57242;DHT22;43095;53.302;5.786;2022-09-12T11:14:41;24.10;93.20
57242;DHT22;43095;53.302;5.786;2022-09-12T11:20:45;24.10;90.70
57242;DHT22;43095;53.302;5.786;2022-09-12T11:23:45;24.00;93.10
57242;DHT22;43095;53.302;5.786;2022-09-12T11:30:01;24.20;94.00
57242;DHT22;43095;53.302;5.786;2022-09-12T11:33:52;24.10;93.00
57242;DHT22;43095;53.302;5.786;2022-09-12T11:39:45;24.00;92.20
57242;DHT22;43095;53.302;5.786;2022-09-12T11:42:40;23.80;94.70
57242;DHT22;43095;53.302;5.786;2022-09-12T11:45:43;23.90;92.80
57242;DHT22;43095;53.302;5.786;2022-09-12T11:51:43;23.90;90.50
57242;DHT22;43095;53.302;5.786;2022-09-12T11:57:52;24.00;92.90
57242;DHT22;43095;53.302;5.786;2022-09-12T12:00:50;24.00;94.00
57242;DHT22;43095;53.302;5.786;2022-09-12T12:03:45;24.00;95.00
57242;DHT22;43095;53.302;5.786;2022-09-12T12:06:53;23.90;93.30
57242;DHT22;43095;53.302;5.786;2022-09-12T12:09:51;23.90;93.80
57242;DHT22;43095;53.302;5.786;2022-09-12T12:12:37;23.80;93.60
57242;DHT22;43095;53.302;5.786;2022-09-12T12:15:24;23.80;93.80
57242;DHT22;43095;53.302;5.786;2022-09-12T12:18:18;23.70;93.20
57242;DHT22;43095;53.302;5.786;2022-09-12T12:21:43;23.70;93.20
57242;DHT22;43095;53.302;5.786;2022-09-12T12:24:29;23.60;93.80
57242;DHT22;43095;53.302;5.786;2022-09-12T12:36:07;24.10;95.60
57242;DHT22;43095;53.302;5.786;2022-09-12T12:38:53;24.20;92.80
57242;DHT22;43095;53.302;5.786;2022-09-12T12:41:43;24.50;92.30
57242;DHT22;43095;53.302;5.786;2022-09-12T12:50:26;24.90;88.90
57242;DHT22;43095;53.302;5.786;2022-09-12T12:53:24;25.00;90.30
57242;DHT22;43095;53.302;5.786;2022-09-12T12:56:27;25.30;80.60
57242;DHT22;43095;53.302;5.786;2022-09-12T12:59:20;25.20;82.60
57242;DHT22;43095;53.302;5.786;2022-09-12T13:02:19;25.20;79.30
57242;DHT22;43095;53.302;5.786;2022-09-12T13:05:16;25.40;80.00
57242;DHT22;43095;53.302;5.786;2022-09-12T13:11:06;25.70;75.40
57242;DHT22;43095;53.302;5.786;2022-09-12T13:13:57;25.80;72.40
57242;DHT22;43095;53.302;5.786;2022-09-12T13:16:55;25.90;73.20
57242;DHT22;43095;53.302;5.786;2022-09-12T13:19:43;25.80;74.30
57242;DHT22;43095;53.302;5.786;2022-09-12T13:22:38;25.90;75.00
57242;DHT22;43095;53.302;5.786;2022-09-12T13:25:33;25.80;71.70
57242;DHT22;43095;53.302;5.786;2022-09-12T13:28:18;25.70;70.30
57242;DHT22;43095;53.302;5.786;2022-09-12T13:31:19;25.70;73.30
57242;DHT22;43095;53.302;5.786;2022-09-12T13:34:08;25.70;69.50
57242;DHT22;43095;53.302;5.786;2022-09-12T13:43:04;25.70;67.20
57242;DHT22;43095;53.302;5.786;2022-09-12T13:45:52;25.60;68.10
57242;DHT22;43095;53.302;5.786;2022-09-12T13:48:39;25.50;69.30
57242;DHT22;43095;53.302;5.786;2022-09-12T13:51:28;25.20;69.60
57242;DHT22;43095;53.302;5.786;2022-09-12T13:54:17;25.30;70.80
57242;DHT22;43095;53.302;5.786;2022-09-12T13:57:33;25.20;71.40
57242;DHT22;43095;53.302;5.786;2022-09-12T14:00:19;25.30;69.80
57242;DHT22;43095;53.302;5.786;2022-09-12T14:03:25;25.20;71.30
57242;DHT22;43095;53.302;5.786;2022-09-12T14:06:46;25.10;72.20
57242;DHT22;43095;53.302;5.786;2022-09-12T14:09:37;25.00;75.40
57242;DHT22;43095;53.302;5.786;2022-09-12T14:15:20;24.80;73.60
57242;DHT22;43095;53.302;5.786;2022-09-12T14:21:11;25.10;77.20
57242;DHT22;43095;53.302;5.786;2022-09-12T14:23:59;25.10;75.50
57242;DHT22;43095;53.302;5.786;2022-09-12T14:26:45;24.80;74.30
57242;DHT22;43095;53.302;5.786;2022-09-12T14:29:31;24.50;74.30
57242;DHT22;43095;53.302;5.786;2022-09-12T14:32:24;24.40;76.80
57242;DHT22;43095;53.302;5.786;2022-09-12T14:37:55;24.70;79.30
57242;DHT22;43095;53.302;5.786;2022-09-12T14:40:46;24.70;74.00
57242;DHT22;43095;53.302;5.786;2022-09-12T14:43:41;24.70;75.10
57242;DHT22;43095;53.302;5.786;2022-09-12T14:46:39;24.60;74.60
57242;DHT22;43095;53.302;5.786;2022-09-12T14:52:33;24.40;78.70
57242;DHT22;43095;53.302;5.786;2022-09-12T14:55:30;24.20;74.30
57242;DHT22;43095;53.302;5.786;2022-09-12T15:03:52;24.70;70.70
57242;DHT22;43095;53.302;5.786;2022-09-12T15:06:38;24.70;71.40
57242;DHT22;43095;53.302;5.786;2022-09-12T15:09:24;24.50;71.90
57242;DHT22;43095;53.302;5.786;2022-09-12T15:12:11;24.40;74.30
57242;DHT22;43095;53.302;5.786;2022-09-12T15:14:59;24.20;76.20
57242;DHT22;43095;53.302;5.786;2022-09-12T15:17:48;24.20;76.70
57242;DHT22;43095;53.302;5.786;2022-09-12T15:20:38;24.10;75.90
57242;DHT22;43095;53.302;5.786;2022-09-12T15:23:45;24.20;76.30
57242;DHT22;43095;53.302;5.786;2022-09-12T15:26:31;24.40;77.70
57242;DHT22;43095;53.302;5.786;2022-09-12T15:29:17;24.60;76.40
57242;DHT22;43095;53.302;5.786;2022-09-12T15:32:04;24.90;75.10
57242;DHT22;43095;53.302;5.786;2022-09-12T15:34:50;25.10;73.70
57242;DHT22;43095;53.302;5.786;2022-09-12T15:37:37;25.30;71.70
57242;DHT22;43095;53.302;5.786;2022-09-12T15:40:22;25.40;72.10
57242;DHT22;43095;53.302;5.786;2022-09-12T15:43:11;25.50;72.00
57242;DHT22;43095;53.302;5.786;2022-09-12T15:45:57;25.40;71.20
57242;DHT22;43095;53.302;5.786;2022-09-12T15:48:44;24.90;71.20
57242;DHT22;43095;53.302;5.786;2022-09-12T15:51:36;24.50;72.50
57242;DHT22;43095;53.302;5.786;2022-09-12T15:54:22;24.50;75.70
57242;DHT22;43095;53.302;5.786;2022-09-12T15:57:08;24.50;77.10
57242;DHT22;43095;53.302;5.786;2022-09-12T15:59:53;24.20;80.30
57242;DHT22;43095;53.302;5.786;2022-09-12T16:02:39;24.30;83.20
57242;DHT22;43095;53.302;5.786;2022-09-12T16:05:26;24.40;84.30
57242;DHT22;43095;53.302;5.786;2022-09-12T16:08:11;24.30;86.30
57242;DHT22;43095;53.302;5.786;2022-09-12T16:10:59;24.10;86.90
57242;DHT22;43095;53.302;5.786;2022-09-12T16:13:46;24.00;90.00
57242;DHT22;43095;53.302;5.786;2022-09-12T16:16:32;23.80;90.40
57242;DHT22;43095;53.302;5.786;2022-09-12T16:19:18;23.80;91.00
57242;DHT22;43095;53.302;5.786;2022-09-12T16:22:04;23.70;91.30
57242;DHT22;43095;53.302;5.786;2022-09-12T16:24:50;23.70;91.70
57242;DHT22;43095;53.302;5.786;2022-09-12T16:27:35;23.50;93.00
57242;DHT22;43095;53.302;5.786;2022-09-12T16:30:21;23.50;94.30
57242;DHT22;43095;53.302;5.786;2022-09-12T16:33:07;23.80;94.70
57242;DHT22;43095;53.302;5.786;2022-09-12T16:36:00;24.10;94.00
57242;DHT22;43095;53.302;5.786;2022-09-12T16:38:49;24.40;93.90
57242;DHT22;43095;53.302;5.786;2022-09-12T16:41:35;24.20;92.90
57242;DHT22;43095;53.302;5.786;2022-09-12T16:44:21;24.10;93.20
57242;DHT22;43095;53.302;5.786;2022-09-12T16:47:06;23.90;94.30
57242;DHT22;43095;53.302;5.786;2022-09-12T16:49:52;23.70;94.60
57242;DHT22;43095;53.302;5.786;2022-09-12T16:52:38;23.50;95.30
57242;DHT22;43095;53.302;5.786;2022-09-12T16:55:23;23.20;96.20
57242;DHT22;43095;53.302;5.786;2022-09-12T16:58:09;23.00;97.20
57242;DHT22;43095;53.302;5.786;2022-09-12T17:00:59;22.80;98.00
57242;DHT22;43095;53.302;5.786;2022-09-12T17:03:45;22.70;99.10
57242;DHT22;43095;53.302;5.786;2022-09-12T17:06:32;22.50;99.90
57242;DHT22;43095;53.302;5.786;2022-09-12T17:09:18;22.40;99.90
57242;DHT22;43095;53.302;5.786;2022-09-12T17:12:04;22.20;99.90
57242;DHT22;43095;53.302;5.786;2022-09-12T17:14:49;22.10;99.90
57242;DHT22;43095;53.302;5.786;2022-09-12T17:17:35;22.00;99.90
57242;DHT22;43095;53.302;5.786;2022-09-12T17:20:20;21.90;99.90
57242;DHT22;43095;53.302;5.786;2022-09-12T17:23:06;21.80;99.90
57242;DHT22;43095;53.302;5.786;2022-09-12T17:25:54;21.70;99.90
57242;DHT22;43095;53.302;5.786;2022-09-12T17:28:40;21.60;99.90
57242;DHT22;43095;53.302;5.786;2022-09-12T17:31:26;21.50;99.90
57242;DHT22;43095;53.302;5.786;2022-09-12T17:34:12;21.40;99.90
57242;DHT22;43095;53.302;5.786;2022-09-12T17:37:01;21.40;99.90
57242;DHT22;43095;53.302;5.786;2022-09-12T17:39:47;21.30;99.90
57242;DHT22;43095;53.302;5.786;2022-09-12T17:42:34;21.20;99.90
57242;DHT22;43095;53.302;5.786;2022-09-12T17:45:20;21.10;99.90
57242;DHT22;43095;53.302;5.786;2022-09-12T17:48:06;21.10;99.90
57242;DHT22;43095;53.302;5.786;2022-09-12T17:50:53;21.00;99.90
57242;DHT22;43095;53.302;5.786;2022-09-12T17:53:42;21.00;99.90
57242;DHT22;43095;53.302;5.786;2022-09-12T17:56:29;20.90;99.90
57242;DHT22;43095;53.302;5.786;2022-09-12T17:59:18;20.90;99.90
57242;DHT22;43095;53.302;5.786;2022-09-12T18:02:07;20.80;99.90
57242;DHT22;43095;53.302;5.786;2022-09-12T18:05:00;20.70;99.90
57242;DHT22;43095;53.302;5.786;2022-09-12T18:07:51;20.70;99.90
57242;DHT22;43095;53.302;5.786;2022-09-12T18:10:36;20.60;99.90
57242;DHT22;43095;53.302;5.786;2022-09-12T18:13:22;20.60;99.90
57242;DHT22;43095;53.302;5.786;2022-09-12T18:16:10;20.60;99.90
57242;DHT22;43095;53.302;5.786;2022-09-12T18:18:59;20.50;99.90
57242;DHT22;43095;53.302;5.786;2022-09-12T18:21:47;20.40;99.90
57242;DHT22;43095;53.302;5.786;2022-09-12T18:24:33;20.30;99.90
57242;DHT22;43095;53.302;5.786;2022-09-12T18:27:19;20.30;99.90
57242;DHT22;43095;53.302;5.786;2022-09-12T18:30:05;20.30;99.90
57242;DHT22;43095;53.302;5.786;2022-09-12T18:33:06;20.20;99.90
57242;DHT22;43095;53.302;5.786;2022-09-12T18:35:52;20.20;99.90
57242;DHT22;43095;53.302;5.786;2022-09-12T18:38:39;20.10;99.90
57242;DHT22;43095;53.302;5.786;2022-09-12T18:41:25;20.10;99.90
57242;DHT22;43095;53.302;5.786;2022-09-12T18:44:13;20.10;99.90
57242;DHT22;43095;53.302;5.786;2022-09-12T18:46:58;20.10;99.90
57242;DHT22;43095;53.302;5.786;2022-09-12T18:49:45;20.00;99.90
57242;DHT22;43095;53.302;5.786;2022-09-12T18:52:30;19.90;99.90
57242;DHT22;43095;53.302;5.786;2022-09-12T18:55:16;19.80;99.90
57242;DHT22;43095;53.302;5.786;2022-09-12T18:58:02;19.70;99.90
57242;DHT22;43095;53.302;5.786;2022-09-12T19:00:48;19.70;99.90
57242;DHT22;43095;53.302;5.786;2022-09-12T19:03:34;19.60;99.90
57242;DHT22;43095;53.302;5.786;2022-09-12T19:06:25;19.60;99.90
57242;DHT22;43095;53.302;5.786;2022-09-12T19:09:12;19.50;99.90
57242;DHT22;43095;53.302;5.786;2022-09-12T19:11:58;19.50;99.90
57242;DHT22;43095;53.302;5.786;2022-09-12T19:14:44;19.40;99.90
57242;DHT22;43095;53.302;5.786;2022-09-12T19:17:30;19.30;99.90
57242;DHT22;43095;53.302;5.786;2022-09-12T19:20:15;19.30;99.90
57242;DHT22;43095;53.302;5.786;2022-09-12T19:23:01;19.30;99.90
57242;DHT22;43095;53.302;5.786;2022-09-12T19:26:03;19.20;99.90
57242;DHT22;43095;53.302;5.786;2022-09-12T19:28:49;19.10;99.90
57242;DHT22;43095;53.302;5.786;2022-09-12T19:31:34;19.10;99.90
57242;DHT22;43095;53.302;5.786;2022-09-12T19:34:20;19.00;99.90
57242;DHT22;43095;53.302;5.786;2022-09-12T19:37:06;18.90;99.90
57242;DHT22;43095;53.302;5.786;2022-09-12T19:39:51;18.90;99.90
57242;DHT22;43095;53.302;5.786;2022-09-12T19:42:37;18.90;99.90
57242;DHT22;43095;53.302;5.786;2022-09-12T19:45:23;18.90;99.90
57242;DHT22;43095;53.302;5.786;2022-09-12T19:48:08;18.80;99.90